Aérodrome :
LOGIN :

S'inscrire | Disclaimer

   EN    FR    IT 

 










Légende :    VFR   VFR Marginal   IFR   IFR Intensif   IFR Très Intensif
Visi : 
Plafond : 
>= 8 km
>= 3000ft
5 à 8 km
1000 à 3000 ft
1500m à 5 km
500 à 1000 ft
800 à 1500m
200 à 500 ft
< 800m
< 200 ft
Symboles :   Orages  Brouillard  Fortes neiges  Fortes précipitations  Vent > 20 kt
SIGMETs :   Divers  Orages  Givrage  Turbulence  Onde Orograph.  Cendres Volcan.







- Altitude de l'aérodrome : 863 ft
- Code IATA : ZAZ


LEZG - Zaragoza Aragon

DERNIER METAR :
  • 170900Z 11004KT 070V140 CAVOK 05/M04 Q1027

METARs EXPIRÉS :
  • 170830Z 10004KT CAVOK 04/M03 Q1027
  • 170800Z VRB01KT CAVOK 02/M02 Q1027
  • 170730Z 13004KT 050V170 CAVOK 00/M03 Q1026
  • 170700Z 12005KT CAVOK 00/M03 Q1026
  • 170630Z 12004KT CAVOK 01/M03 Q1026

TAF TAF LEZG
Valide du 17 à 06h jusqu'au 18 à 06h UTC


170500Z 1706/1806 10005KT 9999 FEW020 TX18/1715Z TN01/1707Z
TEMPO 1710/1720 10011KT
Pas de NOTAMs connus pour ce terrain.
2 SIGMETs publiés pour la FIR Madrid (LECM) :
 
Onde orographique forte
LECM SIGMET 3 VALID 170900/171200 LEVA
LECM MADRID FIR/UIR SEV MTW OBS AT 0845Z WI N4344 W00607 - N4249 W00607 - N4245 W00322 - N4341 W00322 - N4344 W00607 SFC/FL300 STNR NC=
Onde orographique forte
LECM SIGMET 2 VALID 170630/170900 LEVA
LECM MADRID FIR/UIR SEV MTW OBS AT 0629Z WI N4344 W00607 - N4249 W00607 - N4245 W00322 - N4341 W00322 - N4344 W00607 SFC/FL300 STNR NC=



MET'MAP, la Météo Aéronautique d'un coup d'oeil ! - Copyright ORBIFLY Décembre 2007 - Disclaimer

ORBIFLY MET'MAP TEAM :

Programmation & Développement : Alexandra Zaïnal
Conception & Développement : Baudouin d'Aumeries
Co-Programmation & Développement : Marc-Olivier Méhu
Soutien technique & logistique : Manuel Goepfert

Contact : metmap@orbifly.com




SOURCES & CREDITS :

   NOAA